Private Wetterstation Sandau
Wetterdaten: Donnerstag, 23.02.2012
Datum Zeit Temp. A. Feuchte A. Luftdruck Regen Wind Richtung Richtung Taupunkt Windchill
23.02.2012 00:02 6,0 C 76 % 1015,5 hPa 0,5 l/m 30,6 km/h (5 Bft) W-SW 247 2,1 C 1,3 C
23.02.2012 00:07 5,9 C 76 % 1015,2 hPa 0,0 l/m 19,8 km/h (3 Bft) W-SW 247 2,0 C 2,2 C
23.02.2012 00:12 5,9 C 77 % 1015,1 hPa 0,0 l/m 16,2 km/h (3 Bft) W-SW 247 2,2 C 2,7 C
23.02.2012 00:17 5,9 C 77 % 1014,9 hPa 0,0 l/m 28,8 km/h (4 Bft) S-SW 202 2,2 C 1,3 C
23.02.2012 00:22 5,9 C 77 % 1014,9 hPa 0,0 l/m 20,5 km/h (4 Bft) SW 225 2,2 C 2,1 C
23.02.2012 00:27 5,9 C 77 % 1014,9 hPa 0,0 l/m 13,3 km/h (3 Bft) S-SW 202 2,2 C 3,1 C
23.02.2012 00:32 5,9 C 77 % 1014,6 hPa 0,0 l/m 19,4 km/h (3 Bft) SW 225 2,2 C 2,3 C
23.02.2012 00:37 5,9 C 76 % 1014,7 hPa 0,0 l/m 12,2 km/h (2 Bft) W-SW 247 2,0 C 3,3 C
23.02.2012 00:42 5,9 C 76 % 1014,9 hPa 0,0 l/m 17,6 km/h (3 Bft) S-SW 202 2,0 C 2,5 C
23.02.2012 00:47 5,9 C 76 % 1014,8 hPa 0,0 l/m 24,5 km/h (4 Bft) W 270 2,0 C 1,7 C
23.02.2012 00:52 5,9 C 76 % 1014,9 hPa 0,5 l/m 14,8 km/h (3 Bft) W 270 2,0 C 2,9 C
23.02.2012 00:57 5,9 C 76 % 1014,9 hPa 0,0 l/m 26,3 km/h (4 Bft) W-SW 247 2,0 C 1,5 C
23.02.2012 01:02 5,9 C 77 % 1014,7 hPa 0,0 l/m 14,4 km/h (3 Bft) W-SW 247 2,2 C 2,9 C
23.02.2012 01:07 5,9 C 77 % 1014,8 hPa 0,0 l/m 13,7 km/h (3 Bft) W-SW 247 2,2 C 3,1 C
23.02.2012 01:12 5,9 C 77 % 1014,6 hPa 0,0 l/m 26,6 km/h (4 Bft) W-SW 247 2,2 C 1,5 C
23.02.2012 01:17 5,9 C 77 % 1014,7 hPa 0,0 l/m 12,6 km/h (3 Bft) W-SW 247 2,2 C 3,2 C
23.02.2012 01:22 5,9 C 77 % 1014,6 hPa 0,0 l/m 29,2 km/h (5 Bft) W-SW 247 2,2 C 1,3 C
23.02.2012 01:27 5,9 C 76 % 1014,7 hPa 0,0 l/m 23,0 km/h (4 Bft) W-SW 247 2,0 C 1,9 C
23.02.2012 01:32 6,0 C 76 % 1014,6 hPa 0,0 l/m 14,4 km/h (3 Bft) W 270 2,1 C 3,1 C
23.02.2012 01:37 6,1 C 76 % 1014,6 hPa 0,0 l/m 16,6 km/h (3 Bft) W-SW 247 2,2 C 2,9 C
23.02.2012 01:42 6,1 C 76 % 1014,2 hPa 0,0 l/m 27,0 km/h (4 Bft) W-SW 247 2,2 C 1,7 C
23.02.2012 01:47 6,1 C 76 % 1014,4 hPa 0,0 l/m 25,2 km/h (4 Bft) W-SW 247 2,2 C 1,9 C
23.02.2012 01:52 6,1 C 76 % 1014,3 hPa 0,0 l/m 31,3 km/h (5 Bft) W-SW 247 2,2 C 1,4 C
23.02.2012 01:57 6,1 C 77 % 1014,2 hPa 0,0 l/m 27,7 km/h (4 Bft) SW 225 2,4 C 1,7 C
23.02.2012 02:02 6,1 C 77 % 1014,2 hPa 0,0 l/m 28,1 km/h (4 Bft) W 270 2,4 C 1,6 C
23.02.2012 02:07 6,1 C 78 % 1013,9 hPa 0,0 l/m 16,9 km/h (3 Bft) W-SW 247 2,6 C 2,8 C
23.02.2012 02:12 6,1 C 78 % 1014,0 hPa 0,0 l/m 16,2 km/h (3 Bft) W-SW 247 2,6 C 2,9 C
23.02.2012 02:17 6,0 C 79 % 1013,9 hPa 0,0 l/m 20,5 km/h (4 Bft) W 270 2,6 C 2,3 C
23.02.2012 02:22 6,1 C 79 % 1014,1 hPa 0,0 l/m 17,3 km/h (3 Bft) SW 225 2,7 C 2,8 C
23.02.2012 02:27 5,9 C 79 % 1014,1 hPa 0,0 l/m 23,8 km/h (4 Bft) W-SW 247 2,5 C 1,8 C
23.02.2012 02:32 5,9 C 80 % 1013,9 hPa 0,0 l/m 17,6 km/h (3 Bft) W-SW 247 2,7 C 2,5 C
23.02.2012 02:37 5,9 C 80 % 1013,9 hPa 0,0 l/m 19,8 km/h (3 Bft) W-SW 247 2,7 C 2,2 C
23.02.2012 02:42 5,9 C 81 % 1013,9 hPa 0,0 l/m 13,7 km/h (3 Bft) N-NW 337 2,9 C 3,1 C
23.02.2012 02:47 5,9 C 81 % 1013,7 hPa 0,0 l/m 22,7 km/h (4 Bft) W-SW 247 2,9 C 1,9 C
23.02.2012 02:52 5,9 C 82 % 1013,7 hPa 0,0 l/m 23,0 km/h (4 Bft) W-SW 247 3,1 C 1,9 C
23.02.2012 02:57 5,8 C 82 % 1013,6 hPa 0,0 l/m 18,4 km/h (3 Bft) W 270 3,0 C 2,3 C
23.02.2012 03:02 5,8 C 84 % 1013,5 hPa 0,0 l/m 21,2 km/h (4 Bft) W-SW 247 3,3 C 1,9 C
23.02.2012 03:07 5,6 C 84 % 1013,4 hPa 0,0 l/m 24,5 km/h (4 Bft) W-SW 247 3,1 C 1,3 C
23.02.2012 03:12 5,6 C 85 % 1013,4 hPa 0,0 l/m 21,6 km/h (4 Bft) W-SW 247 3,3 C 1,6 C
23.02.2012 03:17 5,6 C 85 % 1013,3 hPa 0,0 l/m 19,1 km/h (3 Bft) W-SW 247 3,3 C 1,9 C
23.02.2012 03:22 5,6 C 85 % 1013,3 hPa 0,0 l/m 11,9 km/h (2 Bft) W-NW 292 3,3 C 3,0 C
23.02.2012 03:27 5,6 C 86 % 1013,4 hPa 0,0 l/m 22,3 km/h (4 Bft) W-SW 247 3,4 C 1,6 C
23.02.2012 03:32 5,6 C 86 % 1012,9 hPa 0,0 l/m 26,3 km/h (4 Bft) W-NW 292 3,4 C 1,2 C
23.02.2012 03:37 5,6 C 86 % 1013,0 hPa 0,0 l/m 24,5 km/h (4 Bft) W 270 3,4 C 1,3 C
23.02.2012 03:42 5,6 C 86 % 1013,0 hPa 0,0 l/m 22,7 km/h (4 Bft) N-NW 337 3,4 C 1,5 C
23.02.2012 03:47 5,6 C 86 % 1012,9 hPa 0,0 l/m 22,0 km/h (4 Bft) W-SW 247 3,4 C 1,6 C
23.02.2012 03:52 5,6 C 86 % 1012,8 hPa 0,0 l/m 29,5 km/h (5 Bft) W 270 3,4 C 0,9 C
23.02.2012 03:57 5,6 C 86 % 1012,8 hPa 0,0 l/m 27,0 km/h (4 Bft) W-SW 247 3,4 C 1,1 C
23.02.2012 04:02 5,6 C 86 % 1012,8 hPa 0,0 l/m 27,0 km/h (4 Bft) W-SW 247 3,4 C 1,1 C
23.02.2012 04:07 5,8 C 86 % 1012,9 hPa 0,0 l/m 33,5 km/h (5 Bft) SW 225 3,6 C 0,8 C
23.02.2012 04:12 5,8 C 86 % 1012,8 hPa 0,0 l/m 12,2 km/h (2 Bft) W 270 3,6 C 3,2 C
23.02.2012 04:17 5,8 C 86 % 1012,8 hPa 0,0 l/m 15,8 km/h (3 Bft) W-NW 292 3,6 C 2,6 C
23.02.2012 04:22 5,8 C 86 % 1012,7 hPa 0,0 l/m 10,4 km/h (2 Bft) W-SW 247 3,6 C 3,5 C
23.02.2012 04:27 5,8 C 86 % 1012,6 hPa 0,0 l/m 21,2 km/h (4 Bft) W-NW 292 3,6 C 1,9 C
23.02.2012 04:32 5,8 C 86 % 1012,7 hPa 0,0 l/m 13,7 km/h (3 Bft) SW 225 3,6 C 2,9 C
23.02.2012 04:37 5,9 C 86 % 1012,7 hPa 0,0 l/m 18,4 km/h (3 Bft) W 270 3,7 C 2,4 C
23.02.2012 04:42 5,9 C 86 % 1012,7 hPa 0,0 l/m 12,2 km/h (2 Bft) W-NW 292 3,7 C 3,3 C
23.02.2012 04:47 5,9 C 86 % 1012,4 hPa 0,0 l/m 25,6 km/h (4 Bft) W-SW 247 3,7 C 1,6 C
23.02.2012 04:52 5,9 C 86 % 1012,4 hPa 0,0 l/m 14,8 km/h (3 Bft) W 270 3,7 C 2,9 C
23.02.2012 04:57 5,9 C 86 % 1012,4 hPa 0,0 l/m 36,4 km/h (5 Bft) W 270 3,7 C 0,7 C
23.02.2012 05:02 5,9 C 86 % 1012,4 hPa 0,0 l/m 34,6 km/h (5 Bft) S-SW 202 3,7 C 0,9 C
23.02.2012 05:07 5,9 C 86 % 1012,2 hPa 0,0 l/m 34,2 km/h (5 Bft) W-SW 247 3,7 C 0,9 C
23.02.2012 05:12 5,9 C 86 % 1012,3 hPa 0,0 l/m 18,7 km/h (3 Bft) W-SW 247 3,7 C 2,4 C
23.02.2012 05:17 5,9 C 86 % 1012,4 hPa 0,0 l/m 27,7 km/h (4 Bft) W-SW 247 3,7 C 1,4 C
23.02.2012 05:22 5,9 C 86 % 1012,3 hPa 0,0 l/m 16,6 km/h (3 Bft) SW 225 3,7 C 2,6 C
23.02.2012 05:27 5,9 C 86 % 1012,3 hPa 0,0 l/m 26,3 km/h (4 Bft) W 270 3,7 C 1,5 C
23.02.2012 05:32 5,9 C 87 % 1012,3 hPa 0,0 l/m 25,2 km/h (4 Bft) W-SW 247 3,9 C 1,7 C
23.02.2012 05:37 6,0 C 87 % 1012,5 hPa 0,0 l/m 12,2 km/h (2 Bft) W-SW 247 4,0 C 3,4 C
23.02.2012 05:42 6,0 C 87 % 1012,5 hPa 0,0 l/m 25,2 km/h (4 Bft) W-SW 247 4,0 C 1,8 C
23.02.2012 05:47 5,9 C 87 % 1012,4 hPa 0,0 l/m 22,0 km/h (4 Bft) W-SW 247 3,9 C 2,0 C
23.02.2012 05:52 5,9 C 87 % 1012,6 hPa 0,0 l/m 16,9 km/h (3 Bft) SW 225 3,9 C 2,6 C
23.02.2012 05:57 5,9 C 87 % 1012,5 hPa 0,0 l/m 14,8 km/h (3 Bft) W 270 3,9 C 2,9 C
23.02.2012 06:02 6,0 C 87 % 1012,7 hPa 0,0 l/m 22,3 km/h (4 Bft) SW 225 4,0 C 2,1 C
23.02.2012 06:07 6,0 C 87 % 1012,6 hPa 0,0 l/m 13,3 km/h (3 Bft) W-SW 247 4,0 C 3,2 C
23.02.2012 06:12 6,1 C 87 % 1012,5 hPa 0,0 l/m 11,5 km/h (2 Bft) W-SW 247 4,1 C 3,7 C
23.02.2012 06:17 6,1 C 87 % 1012,4 hPa 0,0 l/m 7,2 km/h (2 Bft) S-SO 157 4,1 C 4,6 C
23.02.2012 06:22 6,1 C 88 % 1012,6 hPa 0,0 l/m 10,4 km/h (2 Bft) W-SW 247 4,3 C 3,9 C
23.02.2012 06:27 6,1 C 88 % 1012,5 hPa 0,0 l/m 14,4 km/h (3 Bft) W 270 4,3 C 3,2 C
23.02.2012 06:32 6,0 C 88 % 1012,4 hPa 0,0 l/m 10,4 km/h (2 Bft) NW 315 4,2 C 3,8 C
23.02.2012 06:37 6,0 C 88 % 1012,5 hPa 0,0 l/m 25,2 km/h (4 Bft) W-SW 247 4,2 C 1,8 C
23.02.2012 06:42 6,1 C 89 % 1012,5 hPa 0,0 l/m 20,5 km/h (4 Bft) W-SW 247 4,4 C 2,4 C
23.02.2012 06:47 6,1 C 89 % 1012,7 hPa 0,0 l/m 9,4 km/h (2 Bft) SW 225 4,4 C 4,1 C
23.02.2012 06:52 6,1 C 89 % 1012,6 hPa 0,0 l/m 14,4 km/h (3 Bft) SW 225 4,4 C 3,2 C
23.02.2012 06:57 6,1 C 89 % 1012,8 hPa 0,0 l/m 14,4 km/h (3 Bft) W-NW 292 4,4 C 3,2 C
23.02.2012 07:02 6,1 C 89 % 1012,8 hPa 0,0 l/m 14,8 km/h (3 Bft) W 270 4,4 C 3,1 C
23.02.2012 07:07 6,1 C 89 % 1012,9 hPa 0,0 l/m 14,8 km/h (3 Bft) W-SW 247 4,4 C 3,1 C
23.02.2012 07:12 6,1 C 89 % 1013,1 hPa 0,0 l/m 8,3 km/h (2 Bft) W 270 4,4 C 4,4 C
23.02.2012 07:17 6,1 C 89 % 1013,0 hPa 0,0 l/m 18,4 km/h (3 Bft) W-SW 247 4,4 C 2,6 C
23.02.2012 07:22 6,2 C 89 % 1013,1 hPa 0,0 l/m 15,5 km/h (3 Bft) W-SW 247 4,5 C 3,2 C
23.02.2012 07:27 6,2 C 89 % 1013,1 hPa 0,0 l/m 21,2 km/h (4 Bft) W 270 4,5 C 2,4 C
23.02.2012 07:32 6,3 C 88 % 1012,8 hPa 0,0 l/m 13,3 km/h (3 Bft) SW 225 4,5 C 3,6 C
23.02.2012 07:37 6,3 C 88 % 1013,0 hPa 0,0 l/m 10,1 km/h (2 Bft) W-NW 292 4,5 C 4,2 C
23.02.2012 07:42 6,4 C 88 % 1013,3 hPa 0,0 l/m 13,7 km/h (3 Bft) W 270 4,6 C 3,7 C
23.02.2012 07:47 6,4 C 88 % 1013,2 hPa 0,0 l/m 11,2 km/h (2 Bft) W-NW 292 4,6 C 4,1 C
23.02.2012 07:52 6,4 C 88 % 1013,5 hPa 0,0 l/m 20,9 km/h (4 Bft) W-NW 292 4,6 C 2,7 C
23.02.2012 07:57 6,4 C 88 % 1013,5 hPa 0,0 l/m 31,3 km/h (5 Bft) W-NW 292 4,6 C 1,8 C
23.02.2012 08:02 6,4 C 89 % 1013,5 hPa 0,0 l/m 14,8 km/h (3 Bft) NW 315 4,7 C 3,5 C
23.02.2012 08:07 6,4 C 89 % 1013,6 hPa 0,0 l/m 19,1 km/h (3 Bft) W-NW 292 4,7 C 2,9 C
23.02.2012 08:12 6,4 C 89 % 1013,7 hPa 0,0 l/m 7,9 km/h (2 Bft) W-NW 292 4,7 C 4,8 C
23.02.2012 08:17 6,4 C 89 % 1013,8 hPa 0,0 l/m 14,8 km/h (3 Bft) W-NW 292 4,7 C 3,5 C
23.02.2012 08:22 6,4 C 89 % 1013,6 hPa 0,0 l/m 24,5 km/h (4 Bft) W-SW 247 4,7 C 2,4 C
23.02.2012 08:27 6,4 C 89 % 1013,6 hPa 0,0 l/m 14,8 km/h (3 Bft) W 270 4,7 C 3,5 C
23.02.2012 08:32 6,5 C 89 % 1013,6 hPa 0,0 l/m 26,6 km/h (4 Bft) W-SW 247 4,8 C 2,3 C
23.02.2012 08:37 6,5 C 90 % 1013,5 hPa 0,0 l/m 7,6 km/h (2 Bft) O-SO 112 5,0 C 5,0 C
23.02.2012 08:42 6,5 C 90 % 1013,5 hPa 0,0 l/m 10,1 km/h (2 Bft) W 270 5,0 C 4,4 C
23.02.2012 08:47 6,5 C 90 % 1013,5 hPa 0,0 l/m 19,8 km/h (3 Bft) W 270 5,0 C 3,0 C
23.02.2012 08:52 6,6 C 90 % 1013,6 hPa 0,0 l/m 30,6 km/h (5 Bft) W-SW 247 5,1 C 2,1 C
23.02.2012 08:57 6,6 C 90 % 1013,5 hPa 0,0 l/m 20,9 km/h (4 Bft) W-SW 247 5,1 C 3,0 C
23.02.2012 09:02 6,7 C 90 % 1013,8 hPa 0,0 l/m 22,7 km/h (4 Bft) W 270 5,2 C 2,9 C
23.02.2012 09:07 6,8 C 89 % 1013,8 hPa 0,0 l/m 20,9 km/h (4 Bft) W-SW 247 5,1 C 3,2 C
23.02.2012 09:12 6,8 C 89 % 1013,9 hPa 0,0 l/m 28,1 km/h (4 Bft) SW 225 5,1 C 2,6 C
23.02.2012 09:17 6,8 C 89 % 1013,9 hPa 0,0 l/m 14,8 km/h (3 Bft) W-SW 247 5,1 C 4,0 C
23.02.2012 09:22 6,9 C 89 % 1013,7 hPa 0,0 l/m 21,2 km/h (4 Bft) W 270 5,2 C 3,3 C
23.02.2012 09:27 6,9 C 89 % 1013,6 hPa 0,0 l/m 27,0 km/h (4 Bft) W 270 5,2 C 2,8 C
23.02.2012 09:32 6,9 C 89 % 1013,8 hPa 0,0 l/m 7,2 km/h (2 Bft) SW 225 5,2 C 5,6 C
23.02.2012 09:37 7,0 C 89 % 1014,0 hPa 0,0 l/m 9,0 km/h (2 Bft) W-SW 247 5,3 C 5,3 C
23.02.2012 09:42 7,1 C 89 % 1014,2 hPa 0,0 l/m 22,7 km/h (4 Bft) SW 225 5,4 C 3,4 C
23.02.2012 09:47 7,2 C 89 % 1014,4 hPa 0,0 l/m 16,2 km/h (3 Bft) W 270 5,5 C 4,3 C
23.02.2012 09:52 7,2 C 89 % 1014,4 hPa 0,0 l/m 6,5 km/h (2 Bft) S 180 5,5 C 6,1 C
23.02.2012 09:57 7,2 C 88 % 1014,6 hPa 0,0 l/m 18,4 km/h (3 Bft) W-SW 247 5,3 C 4,0 C
23.02.2012 10:02 7,2 C 88 % 1014,7 hPa 0,0 l/m 19,1 km/h (3 Bft) NW 315 5,3 C 3,9 C
23.02.2012 10:07 7,3 C 88 % 1014,7 hPa 0,0 l/m 23,8 km/h (4 Bft) W-NW 292 5,4 C 3,6 C
23.02.2012 10:12 7,3 C 88 % 1014,8 hPa 0,0 l/m 14,8 km/h (3 Bft) W-SW 247 5,4 C 4,6 C
23.02.2012 10:17 7,3 C 88 % 1014,8 hPa 0,0 l/m 15,8 km/h (3 Bft) W 270 5,4 C 4,5 C
23.02.2012 10:22 7,4 C 88 % 1014,9 hPa 0,0 l/m 16,2 km/h (3 Bft) NW 315 5,5 C 4,5 C
23.02.2012 10:27 7,5 C 88 % 1014,8 hPa 0,0 l/m 8,6 km/h (2 Bft) W-SW 247 5,6 C 5,9 C
23.02.2012 10:32 7,6 C 88 % 1014,9 hPa 0,0 l/m 7,2 km/h (2 Bft) W 270 5,7 C 6,4 C
23.02.2012 10:37 7,8 C 88 % 1015,0 hPa 0,0 l/m 11,9 km/h (2 Bft) W 270 5,9 C 5,7 C
23.02.2012 10:42 7,8 C 88 % 1015,2 hPa 0,0 l/m 13,3 km/h (3 Bft) W-SW 247 5,9 C 5,4 C
23.02.2012 10:47 7,9 C 88 % 1015,3 hPa 0,0 l/m 9,7 km/h (2 Bft) W 270 6,0 C 6,2 C
23.02.2012 10:52 8,1 C 87 % 1015,5 hPa 0,0 l/m 21,2 km/h (4 Bft) W 270 6,1 C 4,9 C
23.02.2012 10:57 8,1 C 87 % 1015,6 hPa 0,0 l/m 18,7 km/h (3 Bft) W-NW 292 6,1 C 5,1 C
23.02.2012 11:02 8,2 C 87 % 1015,8 hPa 0,0 l/m 19,1 km/h (3 Bft) W-NW 292 6,2 C 5,2 C
23.02.2012 11:07 8,2 C 86 % 1015,9 hPa 0,0 l/m 14,4 km/h (3 Bft) W 270 6,0 C 5,8 C
23.02.2012 11:12 8,3 C 86 % 1015,8 hPa 0,0 l/m 12,2 km/h (2 Bft) W 270 6,1 C 6,2 C
23.02.2012 11:17 8,3 C 86 % 1015,9 hPa 0,0 l/m 16,2 km/h (3 Bft) NW 315 6,1 C 5,7 C
23.02.2012 11:22 8,4 C 86 % 1015,9 hPa 0,0 l/m 17,3 km/h (3 Bft) W-NW 292 6,2 C 5,7 C
23.02.2012 11:27 8,5 C 85 % 1015,9 hPa 0,0 l/m 18,0 km/h (3 Bft) W-NW 292 6,1 C 5,7 C
23.02.2012 11:32 8,6 C 85 % 1016,0 hPa 0,0 l/m 12,6 km/h (3 Bft) W-NW 292 6,2 C 6,5 C
23.02.2012 11:37 8,8 C 85 % 1016,2 hPa 0,0 l/m 16,6 km/h (3 Bft) W 270 6,4 C 6,2 C
23.02.2012 11:42 8,9 C 84 % 1016,5 hPa 0,0 l/m 16,9 km/h (3 Bft) W-NW 292 6,3 C 6,3 C
23.02.2012 11:47 8,9 C 84 % 1016,2 hPa 0,0 l/m 19,8 km/h (3 Bft) W-NW 292 6,3 C 6,0 C
23.02.2012 11:52 9,0 C 84 % 1016,4 hPa 0,0 l/m 10,4 km/h (2 Bft) NW 315 6,4 C 7,4 C
23.02.2012 11:57 9,1 C 83 % 1016,4 hPa 0,0 l/m 26,6 km/h (4 Bft) W 270 6,4 C 5,7 C
23.02.2012 12:02 9,1 C 82 % 1016,5 hPa 0,0 l/m 11,5 km/h (2 Bft) W 270 6,2 C 7,3 C
23.02.2012 12:07 9,1 C 82 % 1016,6 hPa 0,0 l/m 22,0 km/h (4 Bft) W-NW 292 6,2 C 6,0 C
23.02.2012 12:12 9,2 C 81 % 1016,7 hPa 0,0 l/m 18,4 km/h (3 Bft) W-NW 292 6,1 C 6,5 C
23.02.2012 12:17 9,3 C 81 % 1016,6 hPa 0,0 l/m 19,1 km/h (3 Bft) NW 315 6,2 C 6,6 C
23.02.2012 12:22 9,3 C 80 % 1016,3 hPa 0,0 l/m 16,2 km/h (3 Bft) W 270 6,0 C 6,9 C
23.02.2012 12:27 9,5 C 80 % 1016,4 hPa 0,0 l/m 20,5 km/h (4 Bft) N-NW 337 6,2 C 6,7 C
23.02.2012 12:32 9,6 C 80 % 1016,4 hPa 0,0 l/m 22,7 km/h (4 Bft) W 270 6,3 C 6,6 C
23.02.2012 12:37 9,7 C 79 % 1016,4 hPa 0,0 l/m 27,7 km/h (4 Bft) W-NW 292 6,2 C 6,3 C
23.02.2012 12:42 9,8 C 78 % 1016,5 hPa 0,0 l/m 19,8 km/h (3 Bft) W-NW 292 6,1 C 7,1 C
23.02.2012 12:47 9,8 C 78 % 1016,5 hPa 0,0 l/m 24,5 km/h (4 Bft) W 270 6,1 C 6,7 C
23.02.2012 12:52 9,9 C 79 % 1016,7 hPa 0,0 l/m 21,2 km/h (4 Bft) W-NW 292 6,4 C 7,1 C
23.02.2012 12:57 9,9 C 78 % 1016,8 hPa 0,0 l/m 27,4 km/h (4 Bft) W 270 6,2 C 6,6 C
23.02.2012 13:02 10,1 C 78 % 1016,7 hPa 0,0 l/m 15,5 km/h (3 Bft) N-NW 337 6,4 C 10,1 C
23.02.2012 13:07 10,2 C 77 % 1016,8 hPa 0,0 l/m 28,4 km/h (4 Bft) W-NW 292 6,4 C 10,2 C
23.02.2012 13:12 10,3 C 76 % 1016,7 hPa 0,0 l/m 22,3 km/h (4 Bft) W-NW 292 6,3 C 10,3 C
23.02.2012 13:17 10,3 C 75 % 1016,6 hPa 0,0 l/m 16,9 km/h (3 Bft) W 270 6,1 C 10,3 C
23.02.2012 13:22 10,3 C 75 % 1016,8 hPa 0,0 l/m 18,0 km/h (3 Bft) W-NW 292 6,1 C 10,3 C
23.02.2012 13:27 10,4 C 75 % 1016,9 hPa 0,0 l/m 19,4 km/h (3 Bft) N-NW 337 6,2 C 10,4 C
23.02.2012 13:32 10,6 C 75 % 1016,8 hPa 0,0 l/m 23,4 km/h (4 Bft) W 270 6,4 C 10,6 C
23.02.2012 13:37 10,7 C 74 % 1016,9 hPa 0,0 l/m 23,4 km/h (4 Bft) W-NW 292 6,3 C 10,7 C
23.02.2012 13:42 10,9 C 74 % 1017,0 hPa 0,0 l/m 18,4 km/h (3 Bft) W 270 6,5 C 10,9 C
23.02.2012 13:47 10,9 C 73 % 1017,0 hPa 0,0 l/m 22,7 km/h (4 Bft) N-NW 337 6,3 C 10,9 C
23.02.2012 13:52 11,2 C 73 % 1017,0 hPa 0,0 l/m 14,8 km/h (3 Bft) W-SW 247 6,5 C 11,2 C
23.02.2012 13:57 11,3 C 73 % 1017,3 hPa 0,0 l/m 31,7 km/h (5 Bft) W-NW 292 6,6 C 11,3 C
23.02.2012 14:02 11,3 C 72 % 1017,2 hPa 0,0 l/m 16,9 km/h (3 Bft) NW 315 6,4 C 11,3 C
23.02.2012 14:07 11,2 C 72 % 1017,0 hPa 0,0 l/m 29,5 km/h (5 Bft) W-NW 292 6,3 C 11,2 C
23.02.2012 14:12 10,9 C 71 % 1017,0 hPa 0,0 l/m 16,9 km/h (3 Bft) W-NW 292 5,9 C 10,9 C
23.02.2012 14:17 10,9 C 71 % 1017,2 hPa 0,0 l/m 24,8 km/h (4 Bft) W 270 5,9 C 10,9 C
23.02.2012 14:22 10,9 C 71 % 1017,3 hPa 0,0 l/m 8,6 km/h (2 Bft) NW 315 5,9 C 10,9 C
23.02.2012 14:27 10,8 C 71 % 1017,3 hPa 0,0 l/m 12,6 km/h (3 Bft) W 270 5,8 C 10,8 C
23.02.2012 14:32 10,6 C 71 % 1017,4 hPa 0,0 l/m 26,3 km/h (4 Bft) W 270 5,6 C 10,6 C
23.02.2012 14:37 10,5 C 72 % 1017,4 hPa 0,0 l/m 14,4 km/h (3 Bft) W-NW 292 5,7 C 10,5 C
23.02.2012 14:42 10,6 C 72 % 1017,3 hPa 0,0 l/m 17,6 km/h (3 Bft) W-NW 292 5,8 C 10,6 C
23.02.2012 14:47 10,6 C 72 % 1017,4 hPa 0,0 l/m 8,3 km/h (2 Bft) W 270 5,8 C 10,6 C
23.02.2012 14:52 10,6 C 72 % 1017,5 hPa 0,0 l/m 10,8 km/h (2 Bft) W-SW 247 5,8 C 10,6 C
23.02.2012 14:57 10,8 C 72 % 1017,6 hPa 0,0 l/m 14,4 km/h (3 Bft) W 270 6,0 C 10,8 C
23.02.2012 15:02 10,8 C 72 % 1017,7 hPa 0,0 l/m 27,7 km/h (4 Bft) W 270 6,0 C 10,8 C
23.02.2012 15:07 10,8 C 71 % 1017,7 hPa 0,0 l/m 31,3 km/h (5 Bft) W-NW 292 5,8 C 10,8 C
23.02.2012 15:12 10,8 C 71 % 1017,9 hPa 0,0 l/m 18,0 km/h (3 Bft) W-NW 292 5,8 C 10,8 C
23.02.2012 15:17 10,8 C 71 % 1017,8 hPa 0,0 l/m 22,7 km/h (4 Bft) W 270 5,8 C 10,8 C
23.02.2012 15:22 10,6 C 72 % 1017,8 hPa 0,0 l/m 15,1 km/h (3 Bft) W 270 5,8 C 10,6 C
23.02.2012 15:27 10,5 C 72 % 1017,8 hPa 0,0 l/m 16,6 km/h (3 Bft) W 270 5,7 C 10,5 C
23.02.2012 15:32 10,4 C 72 % 1017,6 hPa 0,0 l/m 14,4 km/h (3 Bft) W 270 5,6 C 10,4 C
23.02.2012 15:37 10,4 C 73 % 1017,6 hPa 0,0 l/m 14,0 km/h (3 Bft) W-NW 292 5,8 C 10,4 C
23.02.2012 15:42 10,3 C 74 % 1017,8 hPa 0,0 l/m 12,6 km/h (3 Bft) W 270 5,9 C 10,3 C
23.02.2012 15:47 10,3 C 74 % 1018,0 hPa 0,0 l/m 6,5 km/h (2 Bft) W 270 5,9 C 10,3 C
23.02.2012 15:52 10,2 C 74 % 1018,0 hPa 0,0 l/m 11,5 km/h (2 Bft) W 270 5,8 C 10,2 C
23.02.2012 15:57 10,1 C 74 % 1017,9 hPa 0,0 l/m 14,8 km/h (3 Bft) W 270 5,7 C 10,1 C
23.02.2012 16:02 10,1 C 75 % 1017,9 hPa 0,0 l/m 23,0 km/h (4 Bft) W-NW 292 5,9 C 10,1 C
23.02.2012 16:07 10,1 C 75 % 1018,0 hPa 0,0 l/m 18,0 km/h (3 Bft) W-NW 292 5,9 C 10,1 C
23.02.2012 16:12 10,1 C 75 % 1018,1 hPa 0,0 l/m 9,7 km/h (2 Bft) W-SW 247 5,9 C 10,1 C
23.02.2012 16:17 10,1 C 75 % 1018,0 hPa 0,0 l/m 13,3 km/h (3 Bft) W-NW 292 5,9 C 10,1 C
23.02.2012 16:22 10,1 C 75 % 1018,2 hPa 0,0 l/m 19,8 km/h (3 Bft) W-SW 247 5,9 C 10,1 C
23.02.2012 16:27 10,1 C 76 % 1018,3 hPa 0,0 l/m 6,1 km/h (2 Bft) W-SW 247 6,1 C 10,1 C
23.02.2012 16:32 10,1 C 76 % 1018,1 hPa 0,0 l/m 4,3 km/h (1 Bft) W-NW 292 6,1 C 10,1 C
23.02.2012 16:37 10,1 C 76 % 1018,0 hPa 0,0 l/m 11,9 km/h (2 Bft) SW 225 6,1 C 10,1 C
23.02.2012 16:42 10,1 C 77 % 1018,0 hPa 0,0 l/m 8,3 km/h (2 Bft) W-SW 247 6,3 C 10,1 C
23.02.2012 16:47 10,1 C 77 % 1017,9 hPa 0,0 l/m 6,5 km/h (2 Bft) SW 225 6,3 C 10,1 C
23.02.2012 16:52 9,9 C 77 % 1018,0 hPa 0,0 l/m 10,1 km/h (2 Bft) W 270 6,1 C 8,5 C
23.02.2012 16:57 9,9 C 78 % 1018,1 hPa 0,0 l/m 12,6 km/h (3 Bft) W 270 6,2 C 8,1 C
23.02.2012 17:02 9,8 C 78 % 1018,2 hPa 0,0 l/m 10,1 km/h (2 Bft) W 270 6,1 C 8,4 C
23.02.2012 17:07 9,8 C 78 % 1018,2 hPa 0,0 l/m 4,7 km/h (1 Bft) W-NW 292 6,1 C 9,6 C
23.02.2012 17:12 9,8 C 78 % 1018,2 hPa 0,0 l/m 6,1 km/h (2 Bft) W 270 6,1 C 9,2 C
23.02.2012 17:17 9,8 C 78 % 1018,3 hPa 0,0 l/m 5,4 km/h (1 Bft) W-NW 292 6,1 C 9,4 C
23.02.2012 17:22 9,6 C 78 % 1018,4 hPa 0,0 l/m 16,2 km/h (3 Bft) W-SW 247 6,0 C 7,3 C
23.02.2012 17:27 9,6 C 79 % 1018,4 hPa 0,0 l/m 7,2 km/h (2 Bft) W-SW 247 6,1 C 8,7 C
23.02.2012 17:32 9,5 C 79 % 1018,5 hPa 0,0 l/m 8,3 km/h (2 Bft) W 270 6,0 C 8,4 C
23.02.2012 17:37 9,5 C 79 % 1018,5 hPa 0,0 l/m 16,6 km/h (3 Bft) W-SW 247 6,0 C 7,1 C
23.02.2012 17:42 9,4 C 79 % 1018,5 hPa 0,0 l/m 22,7 km/h (4 Bft) W 270 5,9 C 6,4 C
23.02.2012 17:47 9,3 C 80 % 1018,6 hPa 0,0 l/m 15,5 km/h (3 Bft) W-SW 247 6,0 C 7,0 C
23.02.2012 17:52 9,3 C 80 % 1018,3 hPa 0,0 l/m 23,4 km/h (4 Bft) SW 225 6,0 C 6,2 C
23.02.2012 17:57 9,3 C 80 % 1018,6 hPa 0,0 l/m 19,8 km/h (3 Bft) W-SW 247 6,0 C 6,5 C
23.02.2012 18:02 9,3 C 80 % 1018,6 hPa 0,0 l/m 9,7 km/h (2 Bft) W-NW 292 6,0 C 7,8 C
23.02.2012 18:07 9,2 C 81 % 1018,5 hPa 0,0 l/m 10,8 km/h (2 Bft) SW 225 6,1 C 7,5 C
23.02.2012 18:12 9,2 C 81 % 1018,5 hPa 0,0 l/m 19,1 km/h (3 Bft) W-SW 247 6,1 C 6,5 C
23.02.2012 18:17 9,1 C 81 % 1018,4 hPa 0,0 l/m 24,5 km/h (4 Bft) W-SW 247 6,0 C 5,8 C
23.02.2012 18:22 9,1 C 81 % 1018,2 hPa 0,0 l/m 14,0 km/h (3 Bft) W 270 6,0 C 6,9 C
23.02.2012 18:27 9,1 C 82 % 1018,2 hPa 0,0 l/m 24,5 km/h (4 Bft) SW 225 6,2 C 5,8 C
23.02.2012 18:32 9,1 C 82 % 1018,1 hPa 0,0 l/m 21,2 km/h (4 Bft) W 270 6,2 C 6,1 C
23.02.2012 18:37 9,0 C 83 % 1018,3 hPa 0,0 l/m 12,2 km/h (2 Bft) NW 315 6,3 C 7,1 C
23.02.2012 18:42 9,0 C 83 % 1018,3 hPa 0,0 l/m 11,5 km/h (2 Bft) W-SW 247 6,3 C 7,2 C
23.02.2012 18:47 8,9 C 84 % 1018,1 hPa 0,0 l/m 18,7 km/h (3 Bft) W-SW 247 6,3 C 6,1 C
23.02.2012 18:52 8,9 C 84 % 1018,2 hPa 0,0 l/m 7,9 km/h (2 Bft) W-SW 247 6,3 C 7,7 C
23.02.2012 18:57 8,9 C 84 % 1018,1 hPa 0,0 l/m 13,3 km/h (3 Bft) W-SW 247 6,3 C 6,8 C
23.02.2012 19:02 8,9 C 84 % 1018,4 hPa 0,0 l/m 8,6 km/h (2 Bft) W-SW 247 6,3 C 7,6 C
23.02.2012 19:07 8,9 C 84 % 1018,4 hPa 0,0 l/m 16,9 km/h (3 Bft) W 270 6,3 C 6,3 C
23.02.2012 19:12 8,9 C 85 % 1018,3 hPa 0,0 l/m 21,2 km/h (4 Bft) W-SW 247 6,5 C 5,9 C
23.02.2012 19:17 8,8 C 85 % 1018,4 hPa 0,0 l/m 6,5 km/h (2 Bft) W 270 6,4 C 8,0 C
23.02.2012 19:22 8,8 C 85 % 1018,4 hPa 0,0 l/m 16,9 km/h (3 Bft) W-SW 247 6,4 C 6,2 C
23.02.2012 19:27 8,8 C 85 % 1018,3 hPa 0,0 l/m 15,5 km/h (3 Bft) W-SW 247 6,4 C 6,4 C
23.02.2012 19:32 8,8 C 85 % 1018,3 hPa 0,0 l/m 11,2 km/h (2 Bft) W-SW 247 6,4 C 7,0 C
23.02.2012 19:37 8,8 C 85 % 1018,4 hPa 0,0 l/m 8,3 km/h (2 Bft) W-SW 247 6,4 C 7,5 C
23.02.2012 19:42 8,8 C 85 % 1018,5 hPa 0,0 l/m 19,4 km/h (3 Bft) W-SW 247 6,4 C 5,9 C
23.02.2012 19:47 8,7 C 86 % 1018,5 hPa 0,0 l/m 7,6 km/h (2 Bft) S 180 6,5 C 7,6 C
23.02.2012 19:52 8,7 C 86 % 1018,2 hPa 0,0 l/m 13,3 km/h (3 Bft) SW 225 6,5 C 6,5 C
23.02.2012 19:57 8,7 C 86 % 1018,4 hPa 0,0 l/m 9,4 km/h (2 Bft) SW 225 6,5 C 7,2 C
23.02.2012 20:02 8,6 C 86 % 1018,6 hPa 0,0 l/m 14,8 km/h (3 Bft) W 270 6,4 C 6,2 C
23.02.2012 20:07 8,6 C 86 % 1018,4 hPa 0,0 l/m 6,5 km/h (2 Bft) W-SW 247 6,4 C 7,7 C
23.02.2012 20:12 8,6 C 87 % 1018,4 hPa 0,0 l/m 18,7 km/h (3 Bft) W-SW 247 6,6 C 5,7 C
23.02.2012 20:17 8,6 C 87 % 1018,3 hPa 0,0 l/m 14,8 km/h (3 Bft) W-SW 247 6,6 C 6,2 C
23.02.2012 20:22 8,6 C 87 % 1018,4 hPa 0,0 l/m 10,1 km/h (2 Bft) SW 225 6,6 C 6,9 C
23.02.2012 20:27 8,6 C 88 % 1018,4 hPa 0,0 l/m 15,1 km/h (3 Bft) W 270 6,7 C 6,2 C
23.02.2012 20:32 8,6 C 88 % 1018,4 hPa 0,0 l/m 20,9 km/h (4 Bft) W-SW 247 6,7 C 5,5 C
23.02.2012 20:37 8,6 C 88 % 1018,4 hPa 0,0 l/m 10,1 km/h (2 Bft) W-SW 247 6,7 C 6,9 C
23.02.2012 20:42 8,7 C 88 % 1018,1 hPa 0,0 l/m 3,2 km/h (1 Bft) W-SW 247 6,8 C 8,7 C
23.02.2012 20:47 8,6 C 88 % 1018,2 hPa 0,0 l/m 9,4 km/h (2 Bft) W-SW 247 6,7 C 7,1 C
23.02.2012 20:52 8,6 C 89 % 1018,1 hPa 0,0 l/m 19,4 km/h (3 Bft) W-SW 247 6,9 C 5,7 C
23.02.2012 20:57 8,6 C 89 % 1018,0 hPa 0,0 l/m 13,7 km/h (3 Bft) SW 225 6,9 C 6,4 C
23.02.2012 21:02 8,6 C 89 % 1018,1 hPa 0,0 l/m 12,6 km/h (3 Bft) SW 225 6,9 C 6,5 C
23.02.2012 21:07 8,6 C 89 % 1018,1 hPa 0,0 l/m 12,6 km/h (3 Bft) W 270 6,9 C 6,5 C
23.02.2012 21:12 8,6 C 90 % 1018,0 hPa 0,0 l/m 9,0 km/h (2 Bft) W-SW 247 7,1 C 7,2 C
23.02.2012 21:17 8,6 C 90 % 1018,0 hPa 0,0 l/m 9,7 km/h (2 Bft) W-SW 247 7,1 C 7,0 C
23.02.2012 21:22 8,5 C 90 % 1017,8 hPa 0,0 l/m 12,2 km/h (2 Bft) W-SW 247 7,0 C 6,5 C
23.02.2012 21:27 8,5 C 90 % 1017,8 hPa 0,0 l/m 13,3 km/h (3 Bft) W 270 7,0 C 6,3 C
23.02.2012 21:32 8,5 C 90 % 1017,8 hPa 0,0 l/m 12,2 km/h (2 Bft) NW 315 7,0 C 6,5 C
23.02.2012 21:37 8,6 C 91 % 1017,8 hPa 0,0 l/m 14,8 km/h (3 Bft) W 270 7,2 C 6,2 C
23.02.2012 21:42 8,6 C 91 % 1017,8 hPa 0,0 l/m 14,8 km/h (3 Bft) NW 315 7,2 C 6,2 C
23.02.2012 21:47 8,6 C 91 % 1017,9 hPa 0,0 l/m 27,0 km/h (4 Bft) W-SW 247 7,2 C 5,0 C
23.02.2012 21:52 8,7 C 91 % 1017,8 hPa 0,0 l/m 22,7 km/h (4 Bft) W-SW 247 7,3 C 5,5 C
23.02.2012 21:57 8,7 C 91 % 1017,9 hPa 0,0 l/m 26,3 km/h (4 Bft) W-SW 247 7,3 C 5,2 C
23.02.2012 22:02 8,8 C 91 % 1018,0 hPa 0,0 l/m 11,2 km/h (2 Bft) W-SW 247 7,4 C 7,0 C
23.02.2012 22:07 8,8 C 91 % 1017,8 hPa 0,0 l/m 18,4 km/h (3 Bft) W-SW 247 7,4 C 6,0 C
23.02.2012 22:12 8,8 C 91 % 1017,9 hPa 0,0 l/m 19,4 km/h (3 Bft) W 270 7,4 C 5,9 C
23.02.2012 22:17 8,8 C 91 % 1017,9 hPa 0,0 l/m 16,6 km/h (3 Bft) W 270 7,4 C 6,2 C
23.02.2012 22:22 8,8 C 91 % 1018,0 hPa 0,0 l/m 11,2 km/h (2 Bft) W 270 7,4 C 7,0 C
23.02.2012 22:27 8,8 C 91 % 1017,8 hPa 0,0 l/m 16,9 km/h (3 Bft) W 270 7,4 C 6,2 C
23.02.2012 22:32 8,8 C 91 % 1017,8 hPa 0,0 l/m 8,3 km/h (2 Bft) W 270 7,4 C 7,5 C
23.02.2012 22:37 8,9 C 91 % 1017,8 hPa 0,0 l/m 14,4 km/h (3 Bft) W-SW 247 7,5 C 6,6 C
23.02.2012 22:42 8,9 C 91 % 1018,0 hPa 0,0 l/m 10,1 km/h (2 Bft) W 270 7,5 C 7,3 C
23.02.2012 22:47 8,9 C 91 % 1017,8 hPa 0,0 l/m 23,0 km/h (4 Bft) W 270 7,5 C 5,7 C
23.02.2012 22:52 8,9 C 91 % 1017,8 hPa 0,0 l/m 14,4 km/h (3 Bft) W 270 7,5 C 6,6 C
23.02.2012 22:57 8,9 C 91 % 1017,9 hPa 0,0 l/m 8,3 km/h (2 Bft) W-SW 247 7,5 C 7,7 C
23.02.2012 23:02 8,9 C 92 % 1017,8 hPa 0,0 l/m 19,4 km/h (3 Bft) W 270 7,7 C 6,0 C
23.02.2012 23:07 8,9 C 92 % 1017,8 hPa 0,0 l/m 14,8 km/h (3 Bft) W 270 7,7 C 6,6 C
23.02.2012 23:12 8,9 C 92 % 1017,9 hPa 0,0 l/m 14,8 km/h (3 Bft) W-SW 247 7,7 C 6,6 C
23.02.2012 23:17 9,0 C 92 % 1018,1 hPa 0,0 l/m 14,4 km/h (3 Bft) W 270 7,8 C 6,8 C
23.02.2012 23:22 9,1 C 92 % 1017,8 hPa 0,0 l/m 23,4 km/h (4 Bft) W-SW 247 7,9 C 5,9 C
23.02.2012 23:27 9,1 C 92 % 1017,8 hPa 0,0 l/m 8,3 km/h (2 Bft) W 270 7,9 C 7,9 C
23.02.2012 23:32 9,1 C 92 % 1017,8 hPa 0,0 l/m 11,5 km/h (2 Bft) SW 225 7,9 C 7,3 C
23.02.2012 23:37 9,1 C 92 % 1017,8 hPa 0,0 l/m 5,8 km/h (2 Bft) W 270 7,9 C 8,5 C
23.02.2012 23:42 9,2 C 92 % 1017,8 hPa 0,0 l/m 25,9 km/h (4 Bft) W 270 8,0 C 5,8 C
23.02.2012 23:47 9,2 C 92 % 1017,9 hPa 0,0 l/m 13,7 km/h (3 Bft) W 270 8,0 C 7,1 C
23.02.2012 23:52 9,2 C 92 % 1017,9 hPa 0,0 l/m 14,0 km/h (3 Bft) W 270 8,0 C 7,1 C
23.02.2012 23:57 9,3 C 92 % 1018,0 hPa 0,0 l/m 29,5 km/h (5 Bft) W 270 8,1 C 5,7 C
_ Min-Zeit 03:07 14:12 05:07 - 20:42 - - 00:07 04:57
Minimum _ 5,6 C 71 % 1012,2 hPa - 3,2 km/h (1 Bft) - - 2,0 C 0,7 C
_ Max-Zeit 13:57 23:02 17:47 00:02 04:57 - - 23:57 13:57
Maximum _ 11,3 C 92 % 1018,6 hPa 0,5 l/m 36,4 km/h
W (5 Bft)
- - 8,1 C 11,3 C
Durchschnitt _ 8,0 C 83 % 1015,8 hPa #1,0 l/m 17,2 km/h (3 Bft) W-SW - 5,3 C 5,6 C
(c) by David Heller